Time;durP1;ratioP1;P1;durP2;ratioP2;P2;SDS_P1;SDS_P2;PMS_P1;PMS_P2;Temp;Humidity;BMP_temperature;BMP_pressure;BME280_temperature;BME280_humidity;BME280_pressure;Samples;Min_cycle;Max_cycle;Signal;HPM_P1;HPM_P2
2023/09/15 00:00:11;;;;;;;68.97;41.72;;;;;;;;;;5031382;28;20035;-63
2023/09/15 00:02:37;;;;;;;55.60;38.55;;;;;;;;;;5031332;28;20048;-63
2023/09/15 00:05:04;;;;;;;58.70;38.15;;;;;;;;;;5031260;28;20017;-63
2023/09/15 00:07:31;;;;;;;76.18;43.33;;;;;;;;;;5031382;28;20344;-64
2023/09/15 00:09:58;;;;;;;34.50;27.92;;;;;;;;;;5031070;28;20519;-64
2023/09/15 00:12:26;;;;;;;101.07;43.88;;;;;;;;;;5031337;28;20024;-63
2023/09/15 00:14:52;;;;;;;135.40;48.08;;;;;;;;;;5031117;28;20045;-63
2023/09/15 00:17:18;;;;;;;82.18;42.33;;;;;;;;;;5031226;28;20071;-63
2023/09/15 00:19:44;;;;;;;122.65;51.53;;;;;;;;;;5031123;28;20120;-64
2023/09/15 00:22:10;;;;;;;98.57;41.80;;;;;;;;;;5030978;28;20044;-64
2023/09/15 00:24:36;;;;;;;57.85;33.00;;;;;;;;;;5031218;28;20025;-64
2023/09/15 00:27:02;;;;;;;79.10;34.28;;;;;;;;;;5030988;28;20079;-64
2023/09/15 00:29:28;;;;;;;33.50;23.83;;;;;;;;;;5031292;28;20130;-64
2023/09/15 00:31:55;;;;;;;52.70;32.38;;;;;;;;;;5033665;28;20065;-64
2023/09/15 00:34:21;;;;;;;40.08;26.95;;;;;;;;;;5034972;28;20037;-64
2023/09/15 00:36:49;;;;;;;48.75;29.60;;;;;;;;;;5034930;28;20088;-64
2023/09/15 00:39:15;;;;;;;52.35;31.30;;;;;;;;;;5035008;28;20109;-64
2023/09/15 00:41:41;;;;;;;89.45;43.35;;;;;;;;;;5034881;28;20061;-63
2023/09/15 00:44:06;;;;;;;70.82;37.78;;;;;;;;;;5034534;28;20506;-63
2023/09/15 00:46:33;;;;;;;73.93;40.15;;;;;;;;;;5033858;28;20021;-63
2023/09/15 00:48:59;;;;;;;69.10;39.13;;;;;;;;;;5034878;28;20025;-63
2023/09/15 00:51:26;;;;;;;55.50;35.67;;;;;;;;;;5034610;28;20021;-64
2023/09/15 00:53:52;;;;;;;42.13;32.33;;;;;;;;;;5034540;28;20025;-63
2023/09/15 01:05:29;;;;;;;60.88;35.17;;;;;;;;;;5023251;28;20076;-63
2023/09/15 01:07:55;;;;;;;36.75;28.00;;;;;;;;;;5029895;28;20025;-64
2023/09/15 01:10:23;;;;;;;39.40;29.10;;;;;;;;;;5034477;28;20017;-63
2023/09/15 01:12:49;;;;;;;49.00;33.47;;;;;;;;;;5034285;28;20029;-63
2023/09/15 01:15:16;;;;;;;61.42;36.95;;;;;;;;;;5034159;28;20033;-63
2023/09/15 01:17:51;;;;;;;33.97;27.98;;;;;;;;;;5033136;28;20018;-63
2023/09/15 01:20:37;;;;;;;30.88;26.45;;;;;;;;;;5016328;28;20021;-63
2023/09/15 01:23:04;;;;;;;34.90;26.00;;;;;;;;;;4984058;28;20050;-63
2023/09/15 01:25:32;;;;;;;47.00;32.72;;;;;;;;;;5015720;28;20107;-62
2023/09/15 01:27:58;;;;;;;29.42;24.20;;;;;;;;;;5034129;28;20479;-62
2023/09/15 01:33:28;;;;;;;26.73;23.35;;;;;;;;;;5032922;28;20128;-62
2023/09/15 01:35:54;;;;;;;30.38;26.92;;;;;;;;;;5032913;28;20095;-62
2023/09/15 01:38:20;;;;;;;46.60;30.38;;;;;;;;;;5033181;28;20471;-62
2023/09/15 01:40:46;;;;;;;47.58;32.05;;;;;;;;;;5033125;28;20055;-62
2023/09/15 01:43:46;;;;;;;29.63;24.38;;;;;;;;;;5032932;28;20049;-62
2023/09/15 01:46:13;;;;;;;31.55;24.75;;;;;;;;;;5013592;28;20026;-62
2023/09/15 01:48:39;;;;;;;52.78;33.88;;;;;;;;;;5032927;28;20485;-62
2023/09/15 01:51:05;;;;;;;33.95;27.42;;;;;;;;;;5015048;28;20056;-62
2023/09/15 01:53:31;;;;;;;47.40;31.23;;;;;;;;;;5032405;28;20387;-62
2023/09/15 01:55:58;;;;;;;37.45;26.65;;;;;;;;;;5030825;28;20507;-62
2023/09/15 01:58:24;;;;;;;24.20;21.23;;;;;;;;;;5030252;28;20056;-62
2023/09/15 02:00:52;;;;;;;42.78;28.15;;;;;;;;;;5030605;28;20463;-64
2023/09/15 02:03:18;;;;;;;31.83;24.75;;;;;;;;;;5032407;28;20075;-63
2023/09/15 02:05:44;;;;;;;35.08;26.13;;;;;;;;;;5032517;28;20022;-63
2023/09/15 02:08:10;;;;;;;23.63;20.65;;;;;;;;;;5032698;28;20018;-62
2023/09/15 02:10:36;;;;;;;22.95;19.52;;;;;;;;;;5032769;28;20063;-62
2023/09/15 02:13:02;;;;;;;27.92;23.42;;;;;;;;;;5032264;28;20047;-63
2023/09/15 02:15:28;;;;;;;25.45;21.20;;;;;;;;;;5032583;28;20124;-63
2023/09/15 02:17:54;;;;;;;23.58;20.95;;;;;;;;;;5032365;28;20545;-63
2023/09/15 02:20:20;;;;;;;22.73;19.25;;;;;;;;;;5032248;28;20037;-63
2023/09/15 02:22:46;;;;;;;23.17;18.23;;;;;;;;;;5032145;28;20084;-62
2023/09/15 02:25:12;;;;;;;22.48;18.40;;;;;;;;;;5032494;28;20039;-62
2023/09/15 02:27:39;;;;;;;24.08;18.92;;;;;;;;;;5032143;28;20055;-62
2023/09/15 02:30:05;;;;;;;20.08;17.42;;;;;;;;;;5031912;28;20022;-62
2023/09/15 02:32:31;;;;;;;19.38;16.75;;;;;;;;;;5031962;28;20082;-62
2023/09/15 02:34:57;;;;;;;22.08;19.05;;;;;;;;;;5032054;28;20483;-62
2023/09/15 02:37:23;;;;;;;20.42;17.00;;;;;;;;;;5032296;28;20029;-62
2023/09/15 02:39:49;;;;;;;20.23;17.90;;;;;;;;;;5031840;28;20376;-62
2023/09/15 02:42:15;;;;;;;28.35;21.42;;;;;;;;;;5032344;28;20060;-62
2023/09/15 02:44:42;;;;;;;21.33;17.88;;;;;;;;;;5013808;28;20449;-62
2023/09/15 02:47:08;;;;;;;23.20;18.65;;;;;;;;;;5032485;28;20168;-62
2023/09/15 02:49:34;;;;;;;26.85;20.85;;;;;;;;;;5032414;28;20076;-62
2023/09/15 02:52:05;;;;;;;24.48;20.80;;;;;;;;;;5013441;28;20103;-62
2023/09/15 02:54:31;;;;;;;22.02;18.52;;;;;;;;;;5027964;28;20029;-62
2023/09/15 02:56:57;;;;;;;24.48;21.23;;;;;;;;;;5024625;28;20037;-62
2023/09/15 02:59:23;;;;;;;25.40;21.05;;;;;;;;;;5029489;28;20044;-63
2023/09/15 03:01:50;;;;;;;18.15;15.65;;;;;;;;;;5031614;28;20040;-63
2023/09/15 03:04:16;;;;;;;17.73;14.82;;;;;;;;;;5029039;28;20100;-62
2023/09/15 03:06:42;;;;;;;13.70;12.27;;;;;;;;;;5014258;28;20063;-62
2023/09/15 03:09:09;;;;;;;13.98;11.13;;;;;;;;;;5032124;28;20024;-62
2023/09/15 03:11:35;;;;;;;11.68;10.30;;;;;;;;;;5032163;28;20022;-62
2023/09/15 03:14:01;;;;;;;12.85;10.20;;;;;;;;;;5031819;28;20059;-62
2023/09/15 03:16:29;;;;;;;9.18;7.82;;;;;;;;;;5032262;28;20087;-62
2023/09/15 03:18:55;;;;;;;9.38;8.27;;;;;;;;;;5031906;28;20125;-62
2023/09/15 03:21:20;;;;;;;7.93;6.53;;;;;;;;;;5031722;28;20049;-63
2023/09/15 03:23:48;;;;;;;6.38;5.78;;;;;;;;;;5032031;28;20110;-62
2023/09/15 03:26:14;;;;;;;6.65;6.05;;;;;;;;;;5032130;28;20030;-62
2023/09/15 03:28:40;;;;;;;5.85;5.25;;;;;;;;;;5031885;28;20037;-62
2023/09/15 03:31:06;;;;;;;5.93;5.07;;;;;;;;;;5031641;28;20482;-62
2023/09/15 03:33:32;;;;;;;9.82;6.60;;;;;;;;;;5020989;28;20030;-62
2023/09/15 03:35:58;;;;;;;14.18;8.27;;;;;;;;;;5029303;28;20475;-61
2023/09/15 03:38:25;;;;;;;8.68;6.43;;;;;;;;;;5031598;28;20036;-61
2023/09/15 03:40:51;;;;;;;7.55;5.35;;;;;;;;;;5031502;28;20123;-61
2023/09/15 03:43:17;;;;;;;7.75;5.53;;;;;;;;;;5013752;28;20017;-62
2023/09/15 03:45:44;;;;;;;5.35;4.63;;;;;;;;;;5031603;28;20033;-62
2023/09/15 03:48:10;;;;;;;5.93;4.55;;;;;;;;;;5031515;28;20021;-61
2023/09/15 03:50:36;;;;;;;4.95;4.53;;;;;;;;;;5031511;28;20029;-62
2023/09/15 03:53:02;;;;;;;7.13;4.90;;;;;;;;;;5031403;28;20025;-62
2023/09/15 03:55:28;;;;;;;5.03;4.28;;;;;;;;;;5031486;28;20040;-62
2023/09/15 03:57:54;;;;;;;6.03;4.50;;;;;;;;;;5031278;28;20026;-61
2023/09/15 04:00:21;;;;;;;5.38;4.25;;;;;;;;;;5031408;28;20079;-62
2023/09/15 04:02:48;;;;;;;8.70;4.05;;;;;;;;;;5031435;28;20040;-62
2023/09/15 04:05:15;;;;;;;4.75;4.28;;;;;;;;;;5031664;28;20102;-62
2023/09/15 04:07:41;;;;;;;5.00;3.75;;;;;;;;;;5035568;28;20021;-62
2023/09/15 04:10:08;;;;;;;5.00;3.72;;;;;;;;;;5035276;28;20379;-62
2023/09/15 04:12:36;;;;;;;6.72;3.95;;;25.00;99.90;;;;;;5035356;28;20080;-62
2023/09/15 04:15:04;;;;;;;6.45;3.97;;;20.60;99.90;;;;;;5035482;28;20120;-62
2023/09/15 04:17:30;;;;;;;5.75;4.00;;;20.00;99.90;;;;;;5035017;28;20029;-61
2023/09/15 04:19:57;;;;;;;10.63;5.55;;;20.00;99.90;;;;;;5034448;28;20025;-61
2023/09/15 04:22:22;;;;;;;9.10;4.63;;;20.00;99.90;;;;;;5032477;28;20053;-61
2023/09/15 04:24:48;;;;;;;9.52;4.53;;;20.00;99.90;;;;;;5034506;28;20460;-62
2023/09/15 04:27:14;;;;;;;8.20;5.25;;;19.90;99.90;;;;;;5017398;28;20177;-61
2023/09/15 04:29:53;;;;;;;11.38;6.32;;;20.00;99.90;;;;;;5034999;28;20048;-61
2023/09/15 04:32:18;;;;;;;11.93;5.57;;;20.00;99.90;;;;;;5035101;28;20089;-62
2023/09/15 04:34:44;;;;;;;37.08;9.07;;;19.90;99.90;;;;;;5035003;28;20395;-61
2023/09/15 04:37:10;;;;;;;24.75;8.48;;;;;;;;;;5034920;28;20017;-61
2023/09/15 04:39:38;;;;;;;9.27;5.85;;;;;;;;;;5035138;28;20022;-61
2023/09/15 04:42:04;;;;;;;9.43;5.78;;;;;;;;;;5034812;28;20033;-62
2023/09/15 04:44:30;;;;;;;7.20;5.60;;;;;;;;;;5034777;28;20075;-62
2023/09/15 04:46:56;;;;;;;5.82;4.60;;;;;;;;;;5035234;28;20079;-62
2023/09/15 04:49:22;;;;;;;5.03;4.53;;;;;;;;;;5049996;28;20025;-62
2023/09/15 04:51:48;;;;;;;7.38;5.22;;;;;;;;;;5034814;28;20025;-62
2023/09/15 04:54:14;;;;;;;5.25;4.75;;;;;;;;;;5034708;28;20135;-62
2023/09/15 04:56:40;;;;;;;7.10;4.90;;;;;;;;;;5034721;28;20022;-62
2023/09/15 05:02:10;;;;;;;7.38;5.63;;;;;;;;;;5028951;28;20086;-62
2023/09/15 05:04:36;;;;;;;9.70;8.20;;;;;;;;;;5028907;28;20112;-62
2023/09/15 05:07:02;;;;;;;7.20;5.70;;;;;;;;;;5034434;28;20022;-62
2023/09/15 05:09:29;;;;;;;7.30;5.80;;;;;;;;;;5034175;28;20477;-62
2023/09/15 05:11:55;;;;;;;8.93;6.70;;;;;;;;;;5016457;28;20034;-62
2023/09/15 05:14:22;;;;;;;8.25;6.82;;;;;;;;;;5033915;28;20025;-63
2023/09/15 05:16:48;;;;;;;4.90;4.43;;;;;;;;;;5033646;28;20111;-62
2023/09/15 05:19:14;;;;;;;7.63;6.22;;;;;;;;;;5034592;28;20068;-62
2023/09/15 05:21:41;;;;;;;5.82;5.30;;;;;;;;;;5034095;28;20049;-62
2023/09/15 05:24:07;;;;;;;7.07;5.70;;;;;;;;;;5034252;28;20029;-62
2023/09/15 05:26:33;;;;;;;7.35;5.50;;;;;;;;;;5016262;28;20029;-62
2023/09/15 05:28:59;;;;;;;5.90;5.30;;;;;;;;;;5033962;28;20025;-62
2023/09/15 05:31:28;;;;;;;6.13;4.97;;;;;;;;;;5014425;28;20061;-62
2023/09/15 05:33:55;;;;;;;6.18;4.90;;;;;;;;;;5033893;28;20116;-62
2023/09/15 05:36:21;;;;;;;7.70;4.80;;;;;;;;;;5033975;28;20037;-62
2023/09/15 05:38:48;;;;;;;4.82;4.32;;;;;;;;;;5033880;28;20025;-62
2023/09/15 05:41:14;;;;;;;5.60;4.47;;;;;;;;;;5033904;28;20337;-62
2023/09/15 05:43:40;;;;;;;4.75;4.35;;;;;;;;;;5033678;28;20021;-62
2023/09/15 05:46:07;;;;;;;5.00;4.50;;;;;;;;;;5033733;28;20060;-63
2023/09/15 05:48:33;;;;;;;5.15;4.60;;;;;;;;;;5027982;28;20033;-62
2023/09/15 05:50:59;;;;;;;6.47;4.78;;;;;;;;;;5033488;28;20029;-62
2023/09/15 05:53:25;;;;;;;5.15;4.05;;;;;;;;;;5033750;28;20083;-62
2023/09/15 05:55:51;;;;;;;6.10;4.90;;;;;;;;;;5033498;28;20120;-62
2023/09/15 05:58:17;;;;;;;4.93;4.32;;;;;;;;;;5033712;28;20034;-62
2023/09/15 06:00:43;;;;;;;5.57;4.30;;;;;;;;;;5030837;28;20073;-62
2023/09/15 06:03:09;;;;;;;8.05;4.40;;;;;;;;;;5033488;28;20439;-62
2023/09/15 06:05:37;;;;;;;5.97;4.78;;;;;;;;;;5033348;28;20029;-62
2023/09/15 06:08:03;;;;;;;6.38;4.65;;;;;;;;;;5033321;28;20479;-62
2023/09/15 06:10:29;;;;;;;5.43;4.93;;;;;;;;;;5033349;28;20041;-63
2023/09/15 06:12:55;;;;;;;5.43;4.70;;;;;;;;;;5015582;28;20032;-62
2023/09/15 06:15:21;;;;;;;5.22;4.60;;;;;;;;;;5033266;28;20037;-62
2023/09/15 06:17:48;;;;;;;6.53;4.32;;;;;;;;;;5033236;28;20468;-62
2023/09/15 06:20:14;;;;;;;5.75;5.10;;;;;;;;;;5033347;28;20025;-62
2023/09/15 06:22:40;;;;;;;4.55;4.15;;;;;;;;;;5032894;28;20551;-62
2023/09/15 06:25:06;;;;;;;5.68;4.05;;;;;;;;;;5033039;28;20444;-62
2023/09/15 06:27:33;;;;;;;6.13;4.28;;;;;;;;;;5031159;28;20033;-62
2023/09/15 06:29:59;;;;;;;5.20;4.40;;;;;;;;;;5027990;28;20218;-62
2023/09/15 06:32:25;;;;;;;7.47;4.25;;;;;;;;;;5029226;28;20556;-62
2023/09/15 06:34:51;;;;;;;6.60;4.65;;;;;;;;;;5013771;28;20053;-62
2023/09/15 06:37:17;;;;;;;5.07;3.85;;;;;;;;;;5031027;28;20404;-63
2023/09/15 06:39:43;;;;;;;5.25;4.75;;;;;;;;;;5023471;28;20071;-61
2023/09/15 06:42:10;;;;;;;7.40;4.57;;;;;;;;;;5026803;28;20522;-62
2023/09/15 06:44:45;;;;;;;11.40;5.22;;;;;;;;;;5026524;28;20070;-62
2023/09/15 06:47:11;;;;;;;6.13;5.13;;;;;;;;;;5031513;28;20017;-62
2023/09/15 06:49:38;;;;;;;5.22;4.07;;;;;;;;;;5014608;28;20029;-61
2023/09/15 06:52:04;;;;;;;5.50;4.70;;;;;;;;;;5032655;28;20160;-62
2023/09/15 06:54:30;;;;;;;5.18;4.10;;;;;;;;;;5014724;28;20070;-62
2023/09/15 06:56:56;;;;;;;5.50;3.85;;;;;;;;;;5032474;28;20357;-61
2023/09/15 06:59:22;;;;;;;5.53;4.68;;;;;;;;;;5032409;28;20080;-65
2023/09/15 07:02:02;;;;;;;5.97;4.65;;;;;;;;;;5024123;28;20076;-64
2023/09/15 07:04:28;;;;;;;5.85;4.78;;;;;;;;;;5023550;28;20033;-63
2023/09/15 07:06:54;;;;;;;3.92;3.53;;;;;;;;;;5032268;28;20083;-68
2023/09/15 07:09:22;;;;;;;4.15;3.78;;;;;;;;;;5033472;28;20055;-71
2023/09/15 07:11:48;;;;;;;4.47;4.07;;;;;;;;;;5032520;28;20068;-68
2023/09/15 07:14:14;;;;;;;4.40;4.00;;;;;;;;;;5032836;28;20025;-66
2023/09/15 07:16:41;;;;;;;5.68;4.43;;;;;;;;;;5032664;28;20452;-64
2023/09/15 07:19:07;;;;;;;6.80;5.03;;;;;;;;;;5032310;28;20021;-67
2023/09/15 07:21:33;;;;;;;5.55;4.35;;;;;;;;;;5014482;28;20128;-64
2023/09/15 07:23:59;;;;;;;4.63;4.03;;;;;;;;;;5032213;28;20492;-66
2023/09/15 07:26:26;;;;;;;5.95;5.32;;;;;;;;;;5032029;28;20056;-63
2023/09/15 07:28:54;;;;;;;6.88;4.53;;;;;;;;;;5031450;28;20388;-65
2023/09/15 07:31:20;;;;;;;6.03;4.60;;;;;;;;;;5019548;28;20025;-66
2023/09/15 07:33:46;;;;;;;5.68;5.07;;;;;;;;;;5032153;28;20049;-66
2023/09/15 07:36:12;;;;;;;5.43;4.90;;;;;;;;;;5032318;28;20121;-68
2023/09/15 10:17:44;;;;;;;9.50;8.23;;;;;;;;;;5024494;28;20130;-67
2023/09/15 10:20:10;;;;;;;10.05;9.20;;;;;;;;;;5032733;28;20036;-68
2023/09/15 10:22:37;;;;;;;11.45;9.75;;;;;;;;;;5033123;28;20060;-61
2023/09/15 10:25:03;;;;;;;8.68;7.70;;;;;;;;;;5006713;28;20017;-61
2023/09/15 10:27:29;;;;;;;10.85;9.80;;;22.60;1.00;;;;;;5033296;28;20065;-62
2023/09/15 10:30:07;;;;;;;11.73;9.32;;;23.10;1.00;;;;;;5033204;28;20053;-61
2023/09/15 10:32:39;;;;;;;10.55;9.48;;;;;;;;;;5033366;28;20032;-61
2023/09/15 10:35:06;;;;;;;10.02;9.02;;;;;;;;;;5033258;28;20041;-61
2023/09/15 10:37:36;;;;;;;9.98;9.10;;;;;;;;;;5033221;28;20383;-61
2023/09/15 10:40:02;;;;;;;9.48;8.57;;;;;;;;;;5033360;28;20033;-61
2023/09/15 10:42:28;;;;;;;9.80;8.90;;;;;;;;;;5015074;28;20100;-62
2023/09/15 10:44:54;;;;;;;10.35;9.35;;;;;;;;;;5033082;28;20029;-61
2023/09/15 10:47:21;;;;;;;11.80;9.38;;;;;;;;;;5033025;28;20498;-61
2023/09/15 10:49:51;;;;;;;8.88;8.02;;;;;;;;;;5033059;28;20057;-68
2023/09/15 10:52:17;;;;;;;10.73;9.00;;;;;;;;;;5032326;28;20025;-67
2023/09/15 10:54:43;;;;;;;9.18;8.35;;;;;;;;;;5030140;28;20286;-59
2023/09/15 10:57:09;;;;;;;9.93;8.98;;;;;;;;;;5028974;28;20427;-69
2023/09/15 10:59:38;;;;;;;9.82;8.98;;;;;;;;;;5032550;28;20025;-64
2023/09/15 11:02:05;;;;;;;9.77;8.77;;;;;;;;;;5019376;28;20456;-67
2023/09/15 11:04:31;;;;;;;8.80;8.00;;;;;;;;;;5032899;28;20018;-73
2023/09/15 11:06:58;;;;;;;9.93;8.90;;;;;;;;;;5030388;28;20164;-58
2023/09/15 11:09:25;;;;;;;9.05;8.25;;;23.30;1.00;;;;;;5030816;28;20340;-57
2023/09/15 11:11:52;;;;;;;10.13;9.23;;;24.40;1.00;;;;;;5031541;28;20014;-57
2023/09/15 11:14:19;;;;;;;10.13;9.13;;;24.40;1.00;;;;;;5030352;28;20383;-59
2023/09/15 11:16:48;;;;;;;10.27;9.27;;;24.60;1.00;;;;;;5029132;28;20054;-66
2023/09/15 11:19:15;;;;;;;13.48;10.30;;;;;;;;;;5030048;28;20032;-66
2023/09/15 11:21:41;;;;;;;11.13;10.00;;;;;;;;;;5026832;28;20034;-60
2023/09/15 11:24:09;;;;;;;9.43;8.52;;;;;;;;;;5031814;28;20043;-66
2023/09/15 11:26:36;;;;;;;12.60;9.68;;;;;;;;;;5037004;28;20021;-69
2023/09/15 11:29:02;;;;;;;10.02;9.05;;;;;;;;;;5031595;28;20037;-66
2023/09/15 11:31:33;;;;;;;10.85;9.75;;;;;;;;;;5012516;28;20026;-65
2023/09/15 11:33:59;;;;;;;13.05;11.75;;;;;;;;;;5007976;28;20080;-65
2023/09/15 11:36:26;;;;;;;10.43;9.43;;;;;;;;;;5030314;28;20029;-64
2023/09/15 11:38:52;;;;;;;10.48;9.55;;;;;;;;;;5026025;28;20116;-66
2023/09/15 11:41:19;;;;;;;12.00;9.32;;;;;;;;;;5032496;28;20020;-69
2023/09/15 11:43:45;;;;;;;10.18;9.27;;;;;;;;;;5031829;28;20388;-67
2023/09/15 11:46:13;;;;;;;12.00;10.82;;;;;;;;;;5030850;28;20502;-63
2023/09/15 11:48:40;;;;;;;10.90;8.90;;;;;;;;;;5029978;28;20565;-65
2023/09/15 11:51:10;;;;;;;9.20;8.30;;;;;;;;;;5028533;28;20037;-58
2023/09/15 11:53:37;;;;;;;9.50;8.63;;;;;;;;;;5030436;28;20443;-59
2023/09/15 11:56:04;;;;;;;9.60;8.75;;;24.60;1.00;;;;;;5030820;28;20034;-61
2023/09/15 11:58:32;;;;;;;9.35;8.43;;;25.20;1.00;;;;;;5031107;28;20098;-61
2023/09/15 12:00:57;;;;;;;9.07;8.23;;;25.10;1.00;;;;;;5031828;28;20029;-69
2023/09/15 12:03:24;;;;;;;9.43;8.63;;;25.00;1.00;;;;;;5033200;28;20507;-61
2023/09/15 12:05:50;;;;;;;9.07;8.27;;;25.00;1.00;;;;;;5031435;28;20053;-62
2023/09/15 12:08:16;;;;;;;8.93;7.70;;;;;;;;;;5030787;28;20091;-65
2023/09/15 12:10:42;;;;;;;10.13;9.23;;;;;;;;;;5030984;28;20130;-64
2023/09/15 12:13:08;;;;;;;10.18;9.18;;;;;;;;;;5031416;28;20031;-68
2023/09/15 12:15:36;;;;;;;9.65;8.73;;;;;;;;;;5032524;28;20033;-67
2023/09/15 12:18:04;;;;;;;9.98;8.98;;;;;;;;;;5031281;28;20041;-67
2023/09/15 12:20:34;;;;;;;9.35;8.45;;;;;;;;;;5030322;28;20021;-67
2023/09/15 12:23:02;;;;;;;9.27;8.35;;;;;;;;;;5031418;28;20029;-67
2023/09/15 12:25:28;;;;;;;7.93;7.22;;;;;;;;;;5031481;28;20444;-67
2023/09/15 12:27:54;;;;;;;8.85;8.02;;;;;;;;;;5034128;28;20052;-67
2023/09/15 12:30:20;;;;;;;8.95;8.25;;;;;;;;;;5035320;28;20154;-67
2023/09/15 12:32:47;;;;;;;9.40;8.57;;;;;;;;;;5035493;28;20030;-67
2023/09/15 12:35:14;;;;;;;14.35;7.70;;;;;;;;;;5035238;28;20044;-67
2023/09/15 12:37:41;;;;;;;9.27;8.48;;;;;;;;;;5035426;28;20041;-67
2023/09/15 12:40:07;;;;;;;9.65;8.80;;;;;;;;;;5035329;28;20100;-67
2023/09/15 12:42:33;;;;;;;8.93;8.13;;;;;;;;;;5017311;28;20064;-67
2023/09/15 12:44:59;;;;;;;10.13;9.13;;;;;;;;;;5035308;28;20061;-67
2023/09/15 12:47:25;;;;;;;10.18;9.15;;;;;;;;;;5035055;28;20021;-68
2023/09/15 12:49:51;;;;;;;8.80;7.90;;;;;;;;;;5035087;28;20094;-67
2023/09/15 12:52:17;;;;;;;9.10;8.25;;;;;;;;;;5035063;28;20499;-67
2023/09/15 12:54:43;;;;;;;8.65;7.82;;;;;;;;;;5034905;28;20034;-68
2023/09/15 12:57:09;;;;;;;8.52;7.72;;;;;;;;;;5034822;28;20112;-67
2023/09/15 12:59:36;;;;;;;9.13;8.32;;;;;;;;;;5035112;28;20052;-67
2023/09/15 13:02:02;;;;;;;9.27;8.52;;;;;;;;;;5035009;28;20108;-67
2023/09/15 13:04:28;;;;;;;8.13;7.25;;;;;;;;;;5034873;28;20083;-68
2023/09/15 13:06:56;;;;;;;8.88;8.00;;;;;;;;;;5034904;28;20069;-68
2023/09/15 13:09:27;;;;;;;10.93;9.98;;;;;;;;;;5034586;28;20021;-66
2023/09/15 13:11:53;;;;;;;10.07;9.18;;;;;;;;;;5034781;28;20025;-66
2023/09/15 13:14:19;;;;;;;10.02;8.73;;;;;;;;;;5034413;28;20026;-67
2023/09/15 13:16:45;;;;;;;8.57;7.78;;;;;;;;;;5034392;28;20119;-66
2023/09/15 13:19:11;;;;;;;8.00;7.40;;;;;;;;;;5034445;28;20048;-67
2023/09/15 13:21:37;;;;;;;8.73;7.90;;;;;;;;;;5034209;28;20390;-67
2023/09/15 13:24:03;;;;;;;11.82;10.57;;;;;;;;;;5034303;28;20021;-67
2023/09/15 13:26:30;;;;;;;8.68;7.78;;;;;;;;;;5034177;28;20025;-67
2023/09/15 13:28:56;;;;;;;8.77;7.97;;;;;;;;;;5034294;28;20033;-67
2023/09/15 13:31:22;;;;;;;7.75;6.95;;;;;;;;;;5034226;28;20067;-67
2023/09/15 13:33:48;;;;;;;7.93;7.13;;;;;;;;;;5034306;28;20056;-67
2023/09/15 13:36:16;;;;;;;7.05;6.45;;;;;;;;;;5034525;28;20175;-67
2023/09/15 13:38:42;;;;;;;6.90;6.28;;;;;;;;;;5033997;28;20392;-67
2023/09/15 13:41:08;;;;;;;7.70;6.50;;;;;;;;;;5016419;28;20033;-67
2023/09/15 13:43:34;;;;;;;8.55;7.05;;;;;;;;;;5032091;28;20029;-67
2023/09/15 13:46:00;;;;;;;7.65;6.28;;;;;;;;;;5033940;28;20112;-66
2023/09/15 13:48:26;;;;;;;7.72;7.03;;;;;;;;;;5034047;28;20105;-67
2023/09/15 13:50:56;;;;;;;8.55;7.85;;;;;;;;;;5033907;28;20452;-67
2023/09/15 13:53:22;;;;;;;8.10;7.35;;;;;;;;;;5034204;28;20411;-67
2023/09/15 13:55:48;;;;;;;7.47;6.93;;;;;;;;;;5033462;28;20076;-67
2023/09/15 13:58:17;;;;;;;7.75;7.05;;;;;;;;;;5029515;28;20057;-67
2023/09/15 14:00:55;;;;;;;7.30;6.70;;;;;;;;;;5031973;28;20040;-58
2023/09/15 14:03:21;;;;;;;7.93;7.30;;;;;;;;;;5031955;28;20021;-58
2023/09/15 14:05:47;;;;;;;8.82;7.88;;;;;;;;;;5033133;28;20063;-59
2023/09/15 14:08:13;;;;;;;7.95;7.15;;;;;;;;;;5033565;28;20369;-59
2023/09/15 14:10:39;;;;;;;9.00;7.50;;;;;;;;;;5033703;28;20079;-60
2023/09/15 14:13:05;;;;;;;8.35;7.63;;;;;;;;;;5033396;28;20029;-49
2023/09/15 14:15:31;;;;;;;7.28;6.68;;;;;;;;;;5033299;28;20083;-49
2023/09/15 14:17:57;;;;;;;8.05;7.35;;;;;;;;;;5015219;28;20085;-52
2023/09/15 14:20:23;;;;;;;8.60;7.90;;;;;;;;;;5033030;28;20451;-49
2023/09/15 14:22:49;;;;;;;8.27;7.47;;;;;;;;;;5033535;28;20025;-50
2023/09/15 14:25:15;;;;;;;8.20;7.50;;;;;;;;;;5033417;28;20021;-49
2023/09/15 14:27:41;;;;;;;8.50;7.68;;;;;;;;;;5033512;28;20057;-63
2023/09/15 14:30:08;;;;;;;8.73;7.93;;;;;;;;;;5033337;28;20029;-65
2023/09/15 14:32:34;;;;;;;7.55;6.45;;;;;;;;;;5033149;28;20013;-66
2023/09/15 14:35:01;;;;;;;6.78;6.15;;;;;;;;;;5033092;28;20064;-67
2023/09/15 14:37:33;;;;;;;8.25;7.57;;;;;;;;;;5032943;28;20440;-65
2023/09/15 14:39:59;;;;;;;7.57;6.88;;;;;;;;;;5033992;28;20029;-63
2023/09/15 14:42:27;;;;;;;7.40;6.70;;;;;;;;;;5032839;28;20483;-63
2023/09/15 14:44:53;;;;;;;7.22;6.60;;;;;;;;;;5033079;28;20021;-60
2023/09/15 14:47:19;;;;;;;7.90;7.20;;;;;;;;;;5033271;28;20056;-68
2023/09/15 14:49:45;;;;;;;8.68;7.97;;;;;;;;;;5030511;28;20025;-60
2023/09/15 14:52:11;;;;;;;7.50;6.80;;;;;;;;;;5032795;28;20521;-59
2023/09/15 14:54:39;;;;;;;7.88;7.28;;;;;;;;;;5032392;28;20036;-59
2023/09/15 14:57:06;;;;;;;9.18;8.23;;;;;;;;;;5032568;28;20021;-58
2023/09/15 14:59:32;;;;;;;8.38;7.57;;;;;;;;;;5014458;28;20021;-59
2023/09/15 15:01:58;;;;;;;8.48;7.70;;;;;;;;;;5032461;28;20087;-57
2023/09/15 15:04:24;;;;;;;7.97;7.22;;;;;;;;;;5032228;28;20021;-58
2023/09/15 15:06:50;;;;;;;8.65;7.85;;;;;;;;;;5004359;28;20029;-59
2023/09/15 15:09:16;;;;;;;8.65;7.85;;;;;;;;;;5001595;28;20076;-64
2023/09/15 15:11:44;;;;;;;7.68;7.07;;;;;;;;;;5031305;28;20103;-65
2023/09/15 15:14:10;;;;;;;17.05;15.32;;;;;;;;;;5031658;28;20033;-64
2023/09/15 15:16:36;;;;;;;7.68;6.97;;;;;;;;;;5031917;28;20049;-62
2023/09/15 15:19:03;;;;;;;8.40;7.70;;;;;;;;;;5032168;28;20041;-62
2023/09/15 15:21:29;;;;;;;8.13;7.13;;;;;;;;;;5032131;28;20022;-63
2023/09/15 15:23:55;;;;;;;7.90;7.20;;;;;;;;;;5032109;28;20083;-51
2023/09/15 15:26:21;;;;;;;8.75;7.95;;;;;;;;;;5032150;28;20057;-55
2023/09/15 15:28:47;;;;;;;9.40;8.63;;;;;;;;;;5014258;28;20126;-49
2023/09/15 15:31:14;;;;;;;8.57;7.82;;;;;;;;;;5032136;28;20032;-65
2023/09/15 15:33:40;;;;;;;9.02;8.32;;;;;;;;;;5032134;28;20036;-63
2023/09/15 15:36:06;;;;;;;8.18;7.47;;;;;;;;;;5032143;28;20029;-63
2023/09/15 15:38:33;;;;;;;7.68;7.00;;;;;;;;;;5032194;28;20096;-64
2023/09/15 15:41:01;;;;;;;7.75;6.95;;;;;;;;;;5032107;28;20031;-56
2023/09/15 15:43:27;;;;;;;8.82;7.70;;;;;;;;;;5031836;28;20548;-53
2023/09/15 15:45:56;;;;;;;7.63;7.00;;;;;;;;;;5032155;28;20038;-61
2023/09/15 15:48:23;;;;;;;9.00;7.53;;;;;;;;;;5031927;28;20520;-65
2023/09/15 15:50:50;;;;;;;8.70;7.90;;;;;;;;;;5031960;28;20022;-61
2023/09/15 15:53:16;;;;;;;8.60;7.43;;;;;;;;;;5031981;28;20072;-62
2023/09/15 15:55:42;;;;;;;8.93;8.13;;;;;;;;;;5031855;28;20042;-62
2023/09/15 15:58:08;;;;;;;7.82;7.10;;;;;;;;;;5032163;28;20047;-62
2023/09/15 16:00:34;;;;;;;8.10;7.40;;;;;;;;;;5031719;28;20032;-63
2023/09/15 16:03:01;;;;;;;8.98;8.00;;;;;;;;;;5032026;28;20021;-62
2023/09/15 16:05:30;;;;;;;7.38;6.68;;;;;;;;;;5031877;28;20022;-63
2023/09/15 16:07:56;;;;;;;9.38;8.48;;;;;;;;;;5014108;28;20103;-62
2023/09/15 16:10:22;;;;;;;9.95;8.75;;;;;;;;;;5008567;28;20037;-62
2023/09/15 16:12:48;;;;;;;8.38;7.60;;;;;;;;;;5023362;28;20106;-62
2023/09/15 16:15:14;;;;;;;7.60;7.00;;;;;;;;;;5031546;28;20034;-62
2023/09/15 16:17:40;;;;;;;8.38;7.63;;;;;;;;;;5031697;28;20075;-62
2023/09/15 16:20:07;;;;;;;9.18;8.38;;;;;;;;;;5030927;28;20128;-63
2023/09/15 16:22:33;;;;;;;7.50;6.80;;;;;;;;;;5030674;28;20483;-62
2023/09/15 16:24:59;;;;;;;7.90;7.10;;;;;;;;;;5030079;28;20474;-62
2023/09/15 16:27:25;;;;;;;8.02;7.30;;;;;;;;;;5014034;28;20083;-62
2023/09/15 16:29:51;;;;;;;7.40;6.80;;;;;;;;;;5031764;28;20018;-62
2023/09/15 16:32:17;;;;;;;7.32;6.72;;;;;;;;;;5013754;28;20065;-62
2023/09/15 16:34:44;;;;;;;7.63;6.93;;;;;;;;;;5031484;28;20030;-61
2023/09/15 16:37:10;;;;;;;7.63;6.30;;;;;;;;;;5031876;28;20336;-61
2023/09/15 16:39:37;;;;;;;8.07;7.47;;;;;;;;;;5031319;28;20081;-62
2023/09/15 16:42:05;;;;;;;9.13;8.32;;;;;;;;;;5013646;28;20116;-62
2023/09/15 16:44:31;;;;;;;8.75;7.90;;;;;;;;;;5030313;28;20562;-55
2023/09/15 16:46:57;;;;;;;7.43;6.72;;;;;;;;;;5031362;28;20369;-63
2023/09/15 16:49:24;;;;;;;6.85;6.22;;;;;;;;;;5031107;28;20038;-60
2023/09/15 16:51:51;;;;;;;7.43;6.72;;;;;;;;;;5031413;28;20026;-56
2023/09/15 16:54:18;;;;;;;7.55;6.85;;;;;;;;;;5031246;28;20044;-57
2023/09/15 16:56:44;;;;;;;12.93;8.10;;;;;;;;;;5031333;28;20446;-56
2023/09/15 16:59:11;;;;;;;8.65;7.93;;;;;;;;;;5029588;28;20038;-56
2023/09/15 17:01:37;;;;;;;8.80;8.00;;;;;;;;;;5030257;28;20037;-52
2023/09/15 17:04:03;;;;;;;8.30;7.50;;;;;;;;;;5030383;28;20336;-55
2023/09/15 17:06:29;;;;;;;8.38;7.57;;;;;;;;;;5030289;28;20025;-55
2023/09/15 17:08:55;;;;;;;7.72;7.07;;;;;;;;;;5030900;28;20022;-54
2023/09/15 17:11:21;;;;;;;8.45;7.65;;;;;;;;;;5013265;28;20371;-55
2023/09/15 17:13:47;;;;;;;9.93;9.02;;;;;;;;;;5033515;28;20376;-56
2023/09/15 17:16:13;;;;;;;8.95;7.90;;;;;;;;;;5034340;28;20060;-60
2023/09/15 17:18:39;;;;;;;8.57;7.80;;;;;;;;;;5034856;28;20017;-62